sensor_id;sensor_type;location;lat;lon;timestamp;P1;durP1;ratioP1;P2;durP2;ratioP2
3006;SDS011;1513;47.650;10.720;2022-09-20T00:00:10;8.50;;;2.23;;
3006;SDS011;1513;47.650;10.720;2022-09-20T00:03:15;1.33;;;1.23;;
3006;SDS011;1513;47.650;10.720;2022-09-20T00:06:20;1.10;;;1.10;;
3006;SDS011;1513;47.650;10.720;2022-09-20T00:09:25;2.83;;;1.50;;
3006;SDS011;1513;47.650;10.720;2022-09-20T00:12:29;1.90;;;1.63;;
3006;SDS011;1513;47.650;10.720;2022-09-20T00:15:33;3.70;;;1.57;;
3006;SDS011;1513;47.650;10.720;2022-09-20T00:18:41;1.93;;;1.70;;
3006;SDS011;1513;47.650;10.720;2022-09-20T00:21:44;2.27;;;1.40;;
3006;SDS011;1513;47.650;10.720;2022-09-20T00:24:48;1.27;;;1.17;;
3006;SDS011;1513;47.650;10.720;2022-09-20T00:27:52;6.73;;;1.07;;
3006;SDS011;1513;47.650;10.720;2022-09-20T00:30:55;2.00;;;1.20;;
3006;SDS011;1513;47.650;10.720;2022-09-20T00:33:59;0.90;;;0.90;;
3006;SDS011;1513;47.650;10.720;2022-09-20T00:37:21;0.90;;;0.90;;
3006;SDS011;1513;47.650;10.720;2022-09-20T00:40:25;1.20;;;1.10;;
3006;SDS011;1513;47.650;10.720;2022-09-20T00:43:38;0.80;;;0.80;;
3006;SDS011;1513;47.650;10.720;2022-09-20T00:46:46;2.90;;;1.03;;
3006;SDS011;1513;47.650;10.720;2022-09-20T00:49:50;1.03;;;1.00;;
3006;SDS011;1513;47.650;10.720;2022-09-20T00:52:59;1.07;;;1.00;;
3006;SDS011;1513;47.650;10.720;2022-09-20T00:56:06;1.30;;;1.20;;
3006;SDS011;1513;47.650;10.720;2022-09-20T01:02:29;3.07;;;1.40;;
3006;SDS011;1513;47.650;10.720;2022-09-20T01:05:34;1.00;;;1.00;;
3006;SDS011;1513;47.650;10.720;2022-09-20T01:08:39;4.60;;;1.57;;
3006;SDS011;1513;47.650;10.720;2022-09-20T01:11:45;3.07;;;1.60;;
3006;SDS011;1513;47.650;10.720;2022-09-20T01:14:49;1.80;;;1.40;;
3006;SDS011;1513;47.650;10.720;2022-09-20T01:17:53;2.30;;;1.40;;
3006;SDS011;1513;47.650;10.720;2022-09-20T01:20:59;1.37;;;1.20;;
3006;SDS011;1513;47.650;10.720;2022-09-20T01:24:10;2.57;;;1.57;;
3006;SDS011;1513;47.650;10.720;2022-09-20T01:31:08;2.37;;;1.80;;
3006;SDS011;1513;47.650;10.720;2022-09-20T01:34:39;1.53;;;1.47;;
3006;SDS011;1513;47.650;10.720;2022-09-20T01:37:53;4.63;;;1.60;;
3006;SDS011;1513;47.650;10.720;2022-09-20T01:41:08;1.77;;;1.67;;
3006;SDS011;1513;47.650;10.720;2022-09-20T01:57:48;8.17;;;2.30;;
3006;SDS011;1513;47.650;10.720;2022-09-20T02:01:30;3.57;;;1.87;;
3006;SDS011;1513;47.650;10.720;2022-09-20T02:11:40;2.40;;;1.37;;
3006;SDS011;1513;47.650;10.720;2022-09-20T02:14:55;2.30;;;1.40;;
3006;SDS011;1513;47.650;10.720;2022-09-20T02:22:13;2.50;;;1.73;;
3006;SDS011;1513;47.650;10.720;2022-09-20T02:35:34;1.43;;;1.30;;
3006;SDS011;1513;47.650;10.720;2022-09-20T02:38:54;2.73;;;1.60;;
3006;SDS011;1513;47.650;10.720;2022-09-20T02:42:29;1.50;;;1.40;;
3006;SDS011;1513;47.650;10.720;2022-09-20T02:52:48;1.50;;;1.40;;
3006;SDS011;1513;47.650;10.720;2022-09-20T02:56:23;1.27;;;1.23;;
3006;SDS011;1513;47.650;10.720;2022-09-20T03:00:01;3.73;;;1.40;;
3006;SDS011;1513;47.650;10.720;2022-09-20T03:20:35;18.67;;;5.33;;
3006;SDS011;1513;47.650;10.720;2022-09-20T03:31:26;8.00;;;3.40;;
3006;SDS011;1513;47.650;10.720;2022-09-20T03:38:21;11.80;;;3.77;;
3006;SDS011;1513;47.650;10.720;2022-09-20T03:55:37;5.90;;;3.23;;
3006;SDS011;1513;47.650;10.720;2022-09-20T04:02:21;18.47;;;4.97;;
3006;SDS011;1513;47.650;10.720;2022-09-20T04:05:27;30.30;;;6.90;;
3006;SDS011;1513;47.650;10.720;2022-09-20T04:12:26;6.47;;;4.00;;
3006;SDS011;1513;47.650;10.720;2022-09-20T04:19:27;4.63;;;3.40;;
3006;SDS011;1513;47.650;10.720;2022-09-20T04:22:34;9.73;;;3.70;;
3006;SDS011;1513;47.650;10.720;2022-09-20T04:25:40;7.77;;;4.27;;
3006;SDS011;1513;47.650;10.720;2022-09-20T04:28:46;5.80;;;4.07;;
3006;SDS011;1513;47.650;10.720;2022-09-20T04:32:01;5.00;;;4.00;;
3006;SDS011;1513;47.650;10.720;2022-09-20T04:38:55;5.97;;;4.27;;
3006;SDS011;1513;47.650;10.720;2022-09-20T04:49:33;5.80;;;3.80;;
3006;SDS011;1513;47.650;10.720;2022-09-20T05:16:26;4.67;;;3.07;;
3006;SDS011;1513;47.650;10.720;2022-09-20T05:23:54;5.60;;;3.13;;
3006;SDS011;1513;47.650;10.720;2022-09-20T05:30:33;4.03;;;2.30;;
3006;SDS011;1513;47.650;10.720;2022-09-20T05:43:40;1.73;;;1.53;;
3006;SDS011;1513;47.650;10.720;2022-09-20T05:47:03;4.10;;;1.10;;
3006;SDS011;1513;47.650;10.720;2022-09-20T05:56:46;3.23;;;1.20;;
3006;SDS011;1513;47.650;10.720;2022-09-20T06:03:20;1.80;;;0.70;;
3006;SDS011;1513;47.650;10.720;2022-09-20T06:10:04;5.13;;;3.57;;
3006;SDS011;1513;47.650;10.720;2022-09-20T06:16:35;5.03;;;2.97;;
3006;SDS011;1513;47.650;10.720;2022-09-20T06:23:22;5.17;;;4.37;;
3006;SDS011;1513;47.650;10.720;2022-09-20T06:26:32;8.73;;;5.60;;
3006;SDS011;1513;47.650;10.720;2022-09-20T06:29:38;10.13;;;6.63;;
3006;SDS011;1513;47.650;10.720;2022-09-20T06:32:59;12.27;;;7.50;;
3006;SDS011;1513;47.650;10.720;2022-09-20T06:36:19;8.17;;;5.23;;
3006;SDS011;1513;47.650;10.720;2022-09-20T06:39:50;5.13;;;2.60;;
3006;SDS011;1513;47.650;10.720;2022-09-20T06:43:34;2.60;;;2.40;;
3006;SDS011;1513;47.650;10.720;2022-09-20T06:46:39;2.40;;;1.53;;
3006;SDS011;1513;47.650;10.720;2022-09-20T06:49:43;1.60;;;1.10;;
3006;SDS011;1513;47.650;10.720;2022-09-20T06:52:48;3.50;;;1.43;;
3006;SDS011;1513;47.650;10.720;2022-09-20T06:55:53;1.40;;;1.23;;
3006;SDS011;1513;47.650;10.720;2022-09-20T06:58:58;2.20;;;1.43;;
3006;SDS011;1513;47.650;10.720;2022-09-20T07:02:01;3.13;;;1.50;;
3006;SDS011;1513;47.650;10.720;2022-09-20T07:05:05;2.43;;;1.90;;
3006;SDS011;1513;47.650;10.720;2022-09-20T07:08:12;3.03;;;1.90;;
3006;SDS011;1513;47.650;10.720;2022-09-20T07:11:15;4.20;;;1.27;;
3006;SDS011;1513;47.650;10.720;2022-09-20T07:14:19;1.60;;;0.97;;
3006;SDS011;1513;47.650;10.720;2022-09-20T07:17:26;3.07;;;1.00;;
3006;SDS011;1513;47.650;10.720;2022-09-20T07:20:30;3.50;;;0.70;;
3006;SDS011;1513;47.650;10.720;2022-09-20T07:23:34;1.67;;;0.80;;
3006;SDS011;1513;47.650;10.720;2022-09-20T07:26:37;4.70;;;0.93;;
3006;SDS011;1513;47.650;10.720;2022-09-20T07:29:40;1.17;;;0.93;;
3006;SDS011;1513;47.650;10.720;2022-09-20T07:32:45;4.60;;;1.30;;
3006;SDS011;1513;47.650;10.720;2022-09-20T07:35:48;3.00;;;0.90;;
3006;SDS011;1513;47.650;10.720;2022-09-20T07:38:54;3.03;;;1.10;;
3006;SDS011;1513;47.650;10.720;2022-09-20T07:41:57;2.30;;;0.90;;
3006;SDS011;1513;47.650;10.720;2022-09-20T07:45:02;2.00;;;1.00;;
3006;SDS011;1513;47.650;10.720;2022-09-20T07:48:06;1.27;;;1.00;;
3006;SDS011;1513;47.650;10.720;2022-09-20T07:51:11;1.37;;;1.23;;
3006;SDS011;1513;47.650;10.720;2022-09-20T07:54:15;6.20;;;1.33;;
3006;SDS011;1513;47.650;10.720;2022-09-20T07:57:19;4.67;;;1.70;;
3006;SDS011;1513;47.650;10.720;2022-09-20T08:00:22;4.87;;;1.43;;
3006;SDS011;1513;47.650;10.720;2022-09-20T08:03:30;4.33;;;1.80;;
3006;SDS011;1513;47.650;10.720;2022-09-20T08:06:35;1.43;;;0.80;;
3006;SDS011;1513;47.650;10.720;2022-09-20T08:09:46;1.60;;;0.90;;
3006;SDS011;1513;47.650;10.720;2022-09-20T08:12:49;2.47;;;1.10;;
3006;SDS011;1513;47.650;10.720;2022-09-20T08:15:59;7.33;;;1.13;;
3006;SDS011;1513;47.650;10.720;2022-09-20T08:19:04;2.80;;;1.20;;
3006;SDS011;1513;47.650;10.720;2022-09-20T08:22:07;4.73;;;1.30;;
3006;SDS011;1513;47.650;10.720;2022-09-20T08:25:13;4.70;;;1.50;;
3006;SDS011;1513;47.650;10.720;2022-09-20T08:28:19;5.10;;;1.20;;
3006;SDS011;1513;47.650;10.720;2022-09-20T08:31:24;3.03;;;1.10;;
3006;SDS011;1513;47.650;10.720;2022-09-20T08:34:28;1.90;;;1.10;;
3006;SDS011;1513;47.650;10.720;2022-09-20T08:37:32;1.30;;;1.20;;
3006;SDS011;1513;47.650;10.720;2022-09-20T08:40:37;8.33;;;1.53;;
3006;SDS011;1513;47.650;10.720;2022-09-20T08:43:48;2.40;;;1.10;;
3006;SDS011;1513;47.650;10.720;2022-09-20T08:50:18;1.20;;;1.10;;
3006;SDS011;1513;47.650;10.720;2022-09-20T08:53:22;3.07;;;1.10;;
3006;SDS011;1513;47.650;10.720;2022-09-20T08:56:28;5.20;;;1.60;;
3006;SDS011;1513;47.650;10.720;2022-09-20T08:59:38;4.77;;;1.20;;
3006;SDS011;1513;47.650;10.720;2022-09-20T09:02:42;4.20;;;1.70;;
3006;SDS011;1513;47.650;10.720;2022-09-20T09:05:47;6.13;;;3.60;;
3006;SDS011;1513;47.650;10.720;2022-09-20T09:08:54;5.20;;;1.73;;
3006;SDS011;1513;47.650;10.720;2022-09-20T09:11:59;5.30;;;1.80;;
3006;SDS011;1513;47.650;10.720;2022-09-20T09:15:09;4.50;;;2.20;;
3006;SDS011;1513;47.650;10.720;2022-09-20T09:18:30;4.17;;;1.53;;
3006;SDS011;1513;47.650;10.720;2022-09-20T09:21:36;2.80;;;1.30;;
3006;SDS011;1513;47.650;10.720;2022-09-20T09:24:45;6.50;;;1.67;;
3006;SDS011;1513;47.650;10.720;2022-09-20T09:31:22;32.70;;;19.47;;
3006;SDS011;1513;47.650;10.720;2022-09-20T09:34:30;18.00;;;10.80;;
3006;SDS011;1513;47.650;10.720;2022-09-20T09:37:40;12.43;;;6.60;;
3006;SDS011;1513;47.650;10.720;2022-09-20T09:40:57;12.10;;;6.07;;
3006;SDS011;1513;47.650;10.720;2022-09-20T09:44:06;6.10;;;3.30;;
3006;SDS011;1513;47.650;10.720;2022-09-20T09:47:33;5.47;;;1.50;;
3006;SDS011;1513;47.650;10.720;2022-09-20T09:50:39;3.80;;;1.40;;
3006;SDS011;1513;47.650;10.720;2022-09-20T09:53:43;5.47;;;1.83;;
3006;SDS011;1513;47.650;10.720;2022-09-20T10:00:10;3.30;;;1.33;;
3006;SDS011;1513;47.650;10.720;2022-09-20T10:06:44;2.30;;;1.13;;
3006;SDS011;1513;47.650;10.720;2022-09-20T10:09:56;4.83;;;1.90;;
3006;SDS011;1513;47.650;10.720;2022-09-20T10:13:10;3.47;;;1.80;;
3006;SDS011;1513;47.650;10.720;2022-09-20T10:16:47;4.27;;;1.70;;
3006;SDS011;1513;47.650;10.720;2022-09-20T10:20:05;2.33;;;1.70;;
3006;SDS011;1513;47.650;10.720;2022-09-20T10:23:22;7.10;;;2.30;;
3006;SDS011;1513;47.650;10.720;2022-09-20T10:36:41;4.77;;;1.60;;
3006;SDS011;1513;47.650;10.720;2022-09-20T10:39:55;3.00;;;2.50;;
3006;SDS011;1513;47.650;10.720;2022-09-20T10:43:08;3.93;;;1.50;;
3006;SDS011;1513;47.650;10.720;2022-09-20T10:50:01;16.20;;;9.10;;
3006;SDS011;1513;47.650;10.720;2022-09-20T10:56:47;22.50;;;11.83;;
3006;SDS011;1513;47.650;10.720;2022-09-20T11:07:00;12.50;;;7.70;;
3006;SDS011;1513;47.650;10.720;2022-09-20T11:10:18;17.63;;;8.80;;
3006;SDS011;1513;47.650;10.720;2022-09-20T11:20:21;12.60;;;7.67;;
3006;SDS011;1513;47.650;10.720;2022-09-20T11:23:34;8.17;;;6.27;;
3006;SDS011;1513;47.650;10.720;2022-09-20T11:26:43;9.50;;;4.97;;
3006;SDS011;1513;47.650;10.720;2022-09-20T11:30:06;9.43;;;4.13;;
3006;SDS011;1513;47.650;10.720;2022-09-20T11:36:31;12.20;;;7.77;;
3006;SDS011;1513;47.650;10.720;2022-09-20T11:40:00;11.30;;;6.73;;
3006;SDS011;1513;47.650;10.720;2022-09-20T11:43:13;12.23;;;7.50;;
3006;SDS011;1513;47.650;10.720;2022-09-20T11:46:20;10.80;;;4.30;;
3006;SDS011;1513;47.650;10.720;2022-09-20T11:49:33;20.27;;;12.10;;
3006;SDS011;1513;47.650;10.720;2022-09-20T11:59:21;6.77;;;4.47;;
3006;SDS011;1513;47.650;10.720;2022-09-20T12:02:38;10.80;;;5.40;;
3006;SDS011;1513;47.650;10.720;2022-09-20T12:05:46;47.33;;;21.63;;
3006;SDS011;1513;47.650;10.720;2022-09-20T12:08:50;11.07;;;6.27;;
3006;SDS011;1513;47.650;10.720;2022-09-20T12:11:54;3.83;;;3.27;;
3006;SDS011;1513;47.650;10.720;2022-09-20T12:14:59;7.53;;;3.20;;
3006;SDS011;1513;47.650;10.720;2022-09-20T12:18:11;3.37;;;2.50;;
3006;SDS011;1513;47.650;10.720;2022-09-20T12:21:29;6.97;;;3.27;;
3006;SDS011;1513;47.650;10.720;2022-09-20T12:24:36;7.30;;;3.70;;
3006;SDS011;1513;47.650;10.720;2022-09-20T12:34:35;3.97;;;2.73;;
3006;SDS011;1513;47.650;10.720;2022-09-20T12:37:39;5.37;;;3.40;;
3006;SDS011;1513;47.650;10.720;2022-09-20T12:40:56;4.00;;;2.67;;
3006;SDS011;1513;47.650;10.720;2022-09-20T12:44:04;10.10;;;4.20;;
3006;SDS011;1513;47.650;10.720;2022-09-20T12:51:01;15.43;;;7.57;;
3006;SDS011;1513;47.650;10.720;2022-09-20T12:54:47;7.70;;;3.83;;
3006;SDS011;1513;47.650;10.720;2022-09-20T12:58:06;10.60;;;3.97;;
3006;SDS011;1513;47.650;10.720;2022-09-20T13:04:39;13.37;;;5.30;;
3006;SDS011;1513;47.650;10.720;2022-09-20T13:07:55;4.17;;;3.47;;
3006;SDS011;1513;47.650;10.720;2022-09-20T13:11:22;6.57;;;3.30;;
3006;SDS011;1513;47.650;10.720;2022-09-20T13:14:27;4.47;;;3.20;;
3006;SDS011;1513;47.650;10.720;2022-09-20T13:17:32;6.70;;;3.30;;
3006;SDS011;1513;47.650;10.720;2022-09-20T13:20:37;4.57;;;3.40;;
3006;SDS011;1513;47.650;10.720;2022-09-20T13:23:48;5.20;;;3.53;;
3006;SDS011;1513;47.650;10.720;2022-09-20T13:26:53;4.60;;;3.13;;
3006;SDS011;1513;47.650;10.720;2022-09-20T13:33:25;3.90;;;2.73;;
3006;SDS011;1513;47.650;10.720;2022-09-20T13:36:29;5.93;;;3.20;;
3006;SDS011;1513;47.650;10.720;2022-09-20T13:39:36;10.33;;;4.97;;
3006;SDS011;1513;47.650;10.720;2022-09-20T13:42:39;8.10;;;4.20;;
3006;SDS011;1513;47.650;10.720;2022-09-20T13:45:43;7.33;;;3.97;;
3006;SDS011;1513;47.650;10.720;2022-09-20T13:48:55;5.10;;;3.40;;
3006;SDS011;1513;47.650;10.720;2022-09-20T13:52:25;7.27;;;4.77;;
3006;SDS011;1513;47.650;10.720;2022-09-20T13:55:34;6.80;;;3.70;;
3006;SDS011;1513;47.650;10.720;2022-09-20T13:58:39;6.23;;;3.50;;
3006;SDS011;1513;47.650;10.720;2022-09-20T14:01:50;6.90;;;4.00;;
3006;SDS011;1513;47.650;10.720;2022-09-20T14:04:57;4.80;;;3.07;;
3006;SDS011;1513;47.650;10.720;2022-09-20T14:08:03;3.37;;;2.90;;
3006;SDS011;1513;47.650;10.720;2022-09-20T14:14:18;5.20;;;3.73;;
3006;SDS011;1513;47.650;10.720;2022-09-20T14:17:22;4.07;;;3.23;;
3006;SDS011;1513;47.650;10.720;2022-09-20T14:20:26;9.47;;;3.67;;
3006;SDS011;1513;47.650;10.720;2022-09-20T14:23:30;5.97;;;4.13;;
3006;SDS011;1513;47.650;10.720;2022-09-20T14:26:35;5.93;;;3.87;;
3006;SDS011;1513;47.650;10.720;2022-09-20T14:29:40;3.80;;;3.17;;
3006;SDS011;1513;47.650;10.720;2022-09-20T14:32:49;6.57;;;3.70;;
3006;SDS011;1513;47.650;10.720;2022-09-20T14:35:54;6.63;;;3.90;;
3006;SDS011;1513;47.650;10.720;2022-09-20T14:39:00;6.87;;;3.30;;
3006;SDS011;1513;47.650;10.720;2022-09-20T14:42:13;4.60;;;3.20;;
3006;SDS011;1513;47.650;10.720;2022-09-20T14:45:23;4.40;;;2.67;;
3006;SDS011;1513;47.650;10.720;2022-09-20T14:48:30;8.90;;;3.07;;
3006;SDS011;1513;47.650;10.720;2022-09-20T14:51:44;6.27;;;3.33;;
3006;SDS011;1513;47.650;10.720;2022-09-20T14:58:18;4.70;;;3.40;;
3006;SDS011;1513;47.650;10.720;2022-09-20T15:01:22;4.90;;;3.23;;
3006;SDS011;1513;47.650;10.720;2022-09-20T15:04:27;5.43;;;3.53;;
3006;SDS011;1513;47.650;10.720;2022-09-20T15:07:30;6.47;;;3.83;;
3006;SDS011;1513;47.650;10.720;2022-09-20T15:10:34;5.90;;;3.67;;
3006;SDS011;1513;47.650;10.720;2022-09-20T15:13:38;7.27;;;3.70;;
3006;SDS011;1513;47.650;10.720;2022-09-20T15:16:41;5.10;;;3.00;;
3006;SDS011;1513;47.650;10.720;2022-09-20T15:19:45;8.27;;;3.40;;
3006;SDS011;1513;47.650;10.720;2022-09-20T15:22:49;9.70;;;3.00;;
3006;SDS011;1513;47.650;10.720;2022-09-20T15:25:53;2.47;;;2.20;;
3006;SDS011;1513;47.650;10.720;2022-09-20T15:28:57;3.23;;;2.40;;
3006;SDS011;1513;47.650;10.720;2022-09-20T15:32:01;4.30;;;2.70;;
3006;SDS011;1513;47.650;10.720;2022-09-20T15:35:07;5.07;;;3.33;;
3006;SDS011;1513;47.650;10.720;2022-09-20T15:38:11;7.23;;;2.50;;
3006;SDS011;1513;47.650;10.720;2022-09-20T15:41:15;6.07;;;3.00;;
3006;SDS011;1513;47.650;10.720;2022-09-20T15:44:19;14.97;;;7.23;;
3006;SDS011;1513;47.650;10.720;2022-09-20T15:47:23;6.50;;;3.70;;
3006;SDS011;1513;47.650;10.720;2022-09-20T15:50:29;9.77;;;3.60;;
3006;SDS011;1513;47.650;10.720;2022-09-20T15:53:34;17.70;;;9.13;;
3006;SDS011;1513;47.650;10.720;2022-09-20T15:56:46;7.90;;;5.40;;
3006;SDS011;1513;47.650;10.720;2022-09-20T15:59:50;25.70;;;9.57;;
3006;SDS011;1513;47.650;10.720;2022-09-20T16:02:53;6.80;;;2.40;;
3006;SDS011;1513;47.650;10.720;2022-09-20T16:05:58;1.83;;;1.67;;
3006;SDS011;1513;47.650;10.720;2022-09-20T16:09:02;4.37;;;2.63;;
3006;SDS011;1513;47.650;10.720;2022-09-20T16:12:06;2.77;;;1.63;;
3006;SDS011;1513;47.650;10.720;2022-09-20T16:15:10;5.63;;;2.77;;
3006;SDS011;1513;47.650;10.720;2022-09-20T16:18:14;7.00;;;2.80;;
3006;SDS011;1513;47.650;10.720;2022-09-20T16:21:37;2.70;;;2.13;;
3006;SDS011;1513;47.650;10.720;2022-09-20T16:24:42;4.00;;;1.97;;
3006;SDS011;1513;47.650;10.720;2022-09-20T16:27:45;8.67;;;2.40;;
3006;SDS011;1513;47.650;10.720;2022-09-20T16:30:55;5.80;;;2.60;;
3006;SDS011;1513;47.650;10.720;2022-09-20T16:34:02;3.00;;;2.10;;
3006;SDS011;1513;47.650;10.720;2022-09-20T16:37:09;5.30;;;3.00;;
3006;SDS011;1513;47.650;10.720;2022-09-20T16:40:16;6.10;;;3.57;;
3006;SDS011;1513;47.650;10.720;2022-09-20T16:43:19;4.40;;;3.17;;
3006;SDS011;1513;47.650;10.720;2022-09-20T16:46:28;4.37;;;3.00;;
3006;SDS011;1513;47.650;10.720;2022-09-20T16:49:34;9.13;;;3.20;;
3006;SDS011;1513;47.650;10.720;2022-09-20T16:52:38;3.43;;;2.20;;
3006;SDS011;1513;47.650;10.720;2022-09-20T16:55:42;6.63;;;2.37;;
3006;SDS011;1513;47.650;10.720;2022-09-20T16:58:46;9.03;;;2.77;;
3006;SDS011;1513;47.650;10.720;2022-09-20T17:01:51;5.70;;;3.40;;
3006;SDS011;1513;47.650;10.720;2022-09-20T17:04:54;6.87;;;5.23;;
3006;SDS011;1513;47.650;10.720;2022-09-20T17:07:58;13.57;;;8.07;;
3006;SDS011;1513;47.650;10.720;2022-09-20T17:11:03;32.93;;;18.27;;
3006;SDS011;1513;47.650;10.720;2022-09-20T17:14:16;34.60;;;18.67;;
3006;SDS011;1513;47.650;10.720;2022-09-20T17:17:21;39.37;;;20.40;;
3006;SDS011;1513;47.650;10.720;2022-09-20T17:20:25;17.80;;;8.03;;
3006;SDS011;1513;47.650;10.720;2022-09-20T17:23:31;14.27;;;5.83;;
3006;SDS011;1513;47.650;10.720;2022-09-20T17:26:36;7.73;;;2.60;;
3006;SDS011;1513;47.650;10.720;2022-09-20T17:29:41;3.33;;;2.10;;
3006;SDS011;1513;47.650;10.720;2022-09-20T17:32:45;12.20;;;6.63;;
3006;SDS011;1513;47.650;10.720;2022-09-20T17:35:51;3.67;;;2.90;;
3006;SDS011;1513;47.650;10.720;2022-09-20T17:38:57;3.63;;;2.67;;
3006;SDS011;1513;47.650;10.720;2022-09-20T17:42:02;3.80;;;2.47;;
3006;SDS011;1513;47.650;10.720;2022-09-20T17:45:05;3.97;;;2.90;;
3006;SDS011;1513;47.650;10.720;2022-09-20T17:48:09;6.43;;;2.63;;
3006;SDS011;1513;47.650;10.720;2022-09-20T17:51:14;12.47;;;4.80;;
3006;SDS011;1513;47.650;10.720;2022-09-20T17:54:19;6.97;;;4.73;;
3006;SDS011;1513;47.650;10.720;2022-09-20T17:57:23;25.73;;;10.37;;
3006;SDS011;1513;47.650;10.720;2022-09-20T18:00:26;6.63;;;4.80;;
3006;SDS011;1513;47.650;10.720;2022-09-20T18:03:32;5.90;;;4.37;;
3006;SDS011;1513;47.650;10.720;2022-09-20T18:06:39;8.37;;;4.40;;
3006;SDS011;1513;47.650;10.720;2022-09-20T18:09:47;9.57;;;5.03;;
3006;SDS011;1513;47.650;10.720;2022-09-20T18:12:50;9.10;;;4.50;;
3006;SDS011;1513;47.650;10.720;2022-09-20T18:15:54;8.17;;;4.13;;
3006;SDS011;1513;47.650;10.720;2022-09-20T18:18:57;6.10;;;3.50;;
3006;SDS011;1513;47.650;10.720;2022-09-20T18:22:01;7.20;;;3.50;;
3006;SDS011;1513;47.650;10.720;2022-09-20T18:25:05;8.00;;;3.77;;
3006;SDS011;1513;47.650;10.720;2022-09-20T18:28:08;4.67;;;4.27;;
3006;SDS011;1513;47.650;10.720;2022-09-20T18:31:11;4.70;;;4.20;;
3006;SDS011;1513;47.650;10.720;2022-09-20T18:34:16;7.63;;;5.00;;
3006;SDS011;1513;47.650;10.720;2022-09-20T18:37:21;10.00;;;5.00;;
3006;SDS011;1513;47.650;10.720;2022-09-20T18:40:24;5.53;;;4.67;;
3006;SDS011;1513;47.650;10.720;2022-09-20T18:43:29;5.87;;;3.97;;
3006;SDS011;1513;47.650;10.720;2022-09-20T18:46:33;4.80;;;3.87;;
3006;SDS011;1513;47.650;10.720;2022-09-20T18:49:39;6.70;;;5.13;;
3006;SDS011;1513;47.650;10.720;2022-09-20T18:52:42;7.80;;;5.03;;
3006;SDS011;1513;47.650;10.720;2022-09-20T18:55:46;8.30;;;5.87;;
3006;SDS011;1513;47.650;10.720;2022-09-20T18:58:55;9.87;;;6.10;;
3006;SDS011;1513;47.650;10.720;2022-09-20T19:05:14;6.47;;;3.33;;
3006;SDS011;1513;47.650;10.720;2022-09-20T19:11:35;8.70;;;6.83;;
3006;SDS011;1513;47.650;10.720;2022-09-20T19:14:58;9.80;;;6.30;;
3006;SDS011;1513;47.650;10.720;2022-09-20T19:27:47;17.23;;;7.93;;
3006;SDS011;1513;47.650;10.720;2022-09-20T19:30:51;13.70;;;7.90;;
3006;SDS011;1513;47.650;10.720;2022-09-20T19:33:57;11.30;;;8.13;;
3006;SDS011;1513;47.650;10.720;2022-09-20T19:40:36;13.07;;;8.30;;
3006;SDS011;1513;47.650;10.720;2022-09-20T19:50:38;17.73;;;8.80;;
3006;SDS011;1513;47.650;10.720;2022-09-20T19:53:49;19.00;;;8.33;;
3006;SDS011;1513;47.650;10.720;2022-09-20T19:56:55;12.20;;;7.57;;
3006;SDS011;1513;47.650;10.720;2022-09-20T20:00:00;9.80;;;5.33;;
3006;SDS011;1513;47.650;10.720;2022-09-20T20:03:04;8.60;;;4.80;;
3006;SDS011;1513;47.650;10.720;2022-09-20T20:06:12;6.23;;;4.23;;
3006;SDS011;1513;47.650;10.720;2022-09-20T20:26:34;6.87;;;4.13;;
3006;SDS011;1513;47.650;10.720;2022-09-20T20:29:38;8.13;;;4.37;;
3006;SDS011;1513;47.650;10.720;2022-09-20T20:32:42;3.50;;;3.20;;
3006;SDS011;1513;47.650;10.720;2022-09-20T20:35:57;7.50;;;4.67;;
3006;SDS011;1513;47.650;10.720;2022-09-20T20:39:02;8.53;;;5.00;;
3006;SDS011;1513;47.650;10.720;2022-09-20T20:42:06;5.13;;;3.40;;
3006;SDS011;1513;47.650;10.720;2022-09-20T20:45:11;6.53;;;3.27;;
3006;SDS011;1513;47.650;10.720;2022-09-20T20:48:15;8.70;;;3.10;;
3006;SDS011;1513;47.650;10.720;2022-09-20T20:51:20;6.97;;;4.23;;
3006;SDS011;1513;47.650;10.720;2022-09-20T20:54:24;5.70;;;3.87;;
3006;SDS011;1513;47.650;10.720;2022-09-20T20:57:27;14.40;;;6.20;;
3006;SDS011;1513;47.650;10.720;2022-09-20T21:00:33;18.37;;;8.50;;
3006;SDS011;1513;47.650;10.720;2022-09-20T21:03:37;14.27;;;6.53;;
3006;SDS011;1513;47.650;10.720;2022-09-20T21:06:42;14.23;;;6.37;;
3006;SDS011;1513;47.650;10.720;2022-09-20T21:09:46;18.90;;;7.60;;
3006;SDS011;1513;47.650;10.720;2022-09-20T21:12:52;16.17;;;8.00;;
3006;SDS011;1513;47.650;10.720;2022-09-20T21:19:13;15.63;;;7.70;;
3006;SDS011;1513;47.650;10.720;2022-09-20T21:22:17;17.90;;;7.43;;
3006;SDS011;1513;47.650;10.720;2022-09-20T21:25:20;13.67;;;7.13;;
3006;SDS011;1513;47.650;10.720;2022-09-20T21:28:24;13.57;;;6.07;;
3006;SDS011;1513;47.650;10.720;2022-09-20T21:31:28;11.87;;;6.23;;
3006;SDS011;1513;47.650;10.720;2022-09-20T21:34:33;16.23;;;6.93;;
3006;SDS011;1513;47.650;10.720;2022-09-20T21:37:36;8.60;;;5.50;;
3006;SDS011;1513;47.650;10.720;2022-09-20T21:40:40;12.40;;;5.50;;
3006;SDS011;1513;47.650;10.720;2022-09-20T21:43:44;15.53;;;4.90;;
3006;SDS011;1513;47.650;10.720;2022-09-20T21:46:50;8.07;;;4.20;;
3006;SDS011;1513;47.650;10.720;2022-09-20T21:49:53;6.53;;;4.30;;
3006;SDS011;1513;47.650;10.720;2022-09-20T21:52:56;5.30;;;3.70;;
3006;SDS011;1513;47.650;10.720;2022-09-20T21:56:01;6.17;;;4.20;;
3006;SDS011;1513;47.650;10.720;2022-09-20T21:59:06;8.53;;;3.87;;
3006;SDS011;1513;47.650;10.720;2022-09-20T22:02:09;5.10;;;3.60;;
3006;SDS011;1513;47.650;10.720;2022-09-20T22:05:12;5.63;;;3.00;;
3006;SDS011;1513;47.650;10.720;2022-09-20T22:08:16;4.63;;;3.47;;
3006;SDS011;1513;47.650;10.720;2022-09-20T22:11:20;8.00;;;4.60;;
3006;SDS011;1513;47.650;10.720;2022-09-20T22:14:23;10.77;;;4.57;;
3006;SDS011;1513;47.650;10.720;2022-09-20T22:17:27;6.13;;;4.23;;
3006;SDS011;1513;47.650;10.720;2022-09-20T22:20:31;16.40;;;4.40;;
3006;SDS011;1513;47.650;10.720;2022-09-20T22:23:34;5.03;;;3.90;;
3006;SDS011;1513;47.650;10.720;2022-09-20T22:26:39;6.57;;;3.63;;
3006;SDS011;1513;47.650;10.720;2022-09-20T22:29:44;9.30;;;4.03;;
3006;SDS011;1513;47.650;10.720;2022-09-20T22:32:48;12.50;;;5.03;;
3006;SDS011;1513;47.650;10.720;2022-09-20T22:35:51;5.13;;;4.00;;
3006;SDS011;1513;47.650;10.720;2022-09-20T22:38:54;7.80;;;4.90;;
3006;SDS011;1513;47.650;10.720;2022-09-20T22:41:58;6.50;;;4.37;;
3006;SDS011;1513;47.650;10.720;2022-09-20T22:45:02;5.93;;;4.50;;
3006;SDS011;1513;47.650;10.720;2022-09-20T22:48:06;8.27;;;4.47;;
3006;SDS011;1513;47.650;10.720;2022-09-20T22:51:11;4.73;;;3.83;;
3006;SDS011;1513;47.650;10.720;2022-09-20T22:54:18;6.80;;;3.47;;
3006;SDS011;1513;47.650;10.720;2022-09-20T22:57:22;9.27;;;3.80;;
3006;SDS011;1513;47.650;10.720;2022-09-20T23:00:25;12.53;;;4.53;;
3006;SDS011;1513;47.650;10.720;2022-09-20T23:03:29;12.83;;;5.37;;
3006;SDS011;1513;47.650;10.720;2022-09-20T23:06:33;5.77;;;3.90;;
3006;SDS011;1513;47.650;10.720;2022-09-20T23:09:38;9.23;;;4.73;;
3006;SDS011;1513;47.650;10.720;2022-09-20T23:12:42;8.33;;;5.00;;
3006;SDS011;1513;47.650;10.720;2022-09-20T23:15:45;9.90;;;5.00;;
3006;SDS011;1513;47.650;10.720;2022-09-20T23:18:49;5.57;;;4.10;;
3006;SDS011;1513;47.650;10.720;2022-09-20T23:21:53;6.97;;;4.40;;
3006;SDS011;1513;47.650;10.720;2022-09-20T23:24:56;4.23;;;3.40;;
3006;SDS011;1513;47.650;10.720;2022-09-20T23:28:00;10.83;;;4.00;;
3006;SDS011;1513;47.650;10.720;2022-09-20T23:31:05;8.40;;;5.17;;
3006;SDS011;1513;47.650;10.720;2022-09-20T23:34:10;9.10;;;4.43;;
3006;SDS011;1513;47.650;10.720;2022-09-20T23:37:14;7.00;;;4.07;;
3006;SDS011;1513;47.650;10.720;2022-09-20T23:40:17;8.87;;;4.23;;
3006;SDS011;1513;47.650;10.720;2022-09-20T23:43:21;18.80;;;5.83;;
3006;SDS011;1513;47.650;10.720;2022-09-20T23:46:25;10.90;;;5.77;;
3006;SDS011;1513;47.650;10.720;2022-09-20T23:49:28;7.23;;;4.77;;
3006;SDS011;1513;47.650;10.720;2022-09-20T23:52:32;8.53;;;5.30;;
3006;SDS011;1513;47.650;10.720;2022-09-20T23:55:35;8.07;;;4.50;;
3006;SDS011;1513;47.650;10.720;2022-09-20T23:58:39;4.30;;;3.90;;
